Terminal Aerodrome Forecast
Issued by NWS

Home | Current Version | Previous Version | Text Only | Print | Product List | Glossary On
Versions: 1 2 3 4 5 6 7 8 9 10 11 12 13 14 15 16 17 18
000
FTUS41 KGYX 281123
TAFPSM
TAF
KPSM 281123Z 2812/2912 34008KT 5SM -SHSN FEW005 OVC015
      TEMPO 2812/2813 1SM -SN BR
     FM281500 32008KT P6SM BKN050
     FM282000 30005KT P6SM FEW050=

USA.gov is the U.S. government's official web portal to all federal, state and local government web resources and services.